sensor_id;sensor_type;location;lat;lon;timestamp;pressure;altitude;pressure_sealevel;temperature;humidity
6680;BME280;3376;42.664;23.346;2023-03-04T00:00:08;94565.22;;;8.05;100.00
6680;BME280;3376;42.664;23.346;2023-03-04T00:02:35;94556.19;;;7.93;100.00
6680;BME280;3376;42.664;23.346;2023-03-04T00:05:03;94568.84;;;7.70;100.00
6680;BME280;3376;42.664;23.346;2023-03-04T00:07:29;94558.63;;;7.53;100.00
6680;BME280;3376;42.664;23.346;2023-03-04T00:09:56;94548.09;;;7.30;100.00
6680;BME280;3376;42.664;23.346;2023-03-04T00:12:23;94560.34;;;7.36;100.00
6680;BME280;3376;42.664;23.346;2023-03-04T00:14:51;94544.88;;;7.28;100.00
6680;BME280;3376;42.664;23.346;2023-03-04T00:17:18;94546.16;;;7.32;100.00
6680;BME280;3376;42.664;23.346;2023-03-04T00:19:45;94539.38;;;7.23;100.00
6680;BME280;3376;42.664;23.346;2023-03-04T00:22:11;94541.00;;;7.32;100.00
6680;BME280;3376;42.664;23.346;2023-03-04T00:24:38;94539.72;;;7.28;100.00
6680;BME280;3376;42.664;23.346;2023-03-04T00:27:05;94531.94;;;7.20;100.00
6680;BME280;3376;42.664;23.346;2023-03-04T00:29:32;94528.72;;;7.18;100.00
6680;BME280;3376;42.664;23.346;2023-03-04T00:32:00;94545.88;;;7.35;100.00
6680;BME280;3376;42.664;23.346;2023-03-04T00:34:26;94498.56;;;7.02;100.00
6680;BME280;3376;42.664;23.346;2023-03-04T00:36:53;94538.75;;;7.29;100.00
6680;BME280;3376;42.664;23.346;2023-03-04T00:39:25;94506.13;;;7.04;100.00
6680;BME280;3376;42.664;23.346;2023-03-04T00:41:52;94545.44;;;7.14;100.00
6680;BME280;3376;42.664;23.346;2023-03-04T00:44:18;94544.53;;;7.23;100.00
6680;BME280;3376;42.664;23.346;2023-03-04T00:46:45;94542.56;;;7.17;100.00
6680;BME280;3376;42.664;23.346;2023-03-04T00:49:14;94533.16;;;7.08;100.00
6680;BME280;3376;42.664;23.346;2023-03-04T00:51:41;94538.66;;;7.13;100.00
6680;BME280;3376;42.664;23.346;2023-03-04T00:54:07;94492.78;;;6.75;100.00
6680;BME280;3376;42.664;23.346;2023-03-04T00:56:34;94523.16;;;6.97;100.00
6680;BME280;3376;42.664;23.346;2023-03-04T00:59:01;94540.56;;;7.03;100.00
6680;BME280;3376;42.664;23.346;2023-03-04T01:01:27;94531.22;;;7.02;100.00
6680;BME280;3376;42.664;23.346;2023-03-04T01:03:54;94531.38;;;7.00;100.00
6680;BME280;3376;42.664;23.346;2023-03-04T01:06:22;94533.47;;;6.97;100.00
6680;BME280;3376;42.664;23.346;2023-03-04T01:08:49;94544.09;;;7.02;100.00
6680;BME280;3376;42.664;23.346;2023-03-04T01:11:16;94502.47;;;6.81;100.00
6680;BME280;3376;42.664;23.346;2023-03-04T01:13:42;94532.88;;;7.11;100.00
6680;BME280;3376;42.664;23.346;2023-03-04T01:16:09;94525.09;;;7.03;100.00
6680;BME280;3376;42.664;23.346;2023-03-04T01:18:37;94515.09;;;6.92;100.00
6680;BME280;3376;42.664;23.346;2023-03-04T01:21:05;94511.44;;;7.02;100.00
6680;BME280;3376;42.664;23.346;2023-03-04T01:23:33;94515.47;;;7.13;100.00
6680;BME280;3376;42.664;23.346;2023-03-04T01:25:59;94513.50;;;6.99;100.00
6680;BME280;3376;42.664;23.346;2023-03-04T01:28:26;94491.84;;;6.84;100.00
6680;BME280;3376;42.664;23.346;2023-03-04T01:30:53;94503.50;;;6.96;100.00
6680;BME280;3376;42.664;23.346;2023-03-04T01:33:20;94509.97;;;7.00;100.00
6680;BME280;3376;42.664;23.346;2023-03-04T01:35:46;94511.28;;;7.04;100.00
6680;BME280;3376;42.664;23.346;2023-03-04T01:38:13;94512.56;;;7.08;100.00
6680;BME280;3376;42.664;23.346;2023-03-04T01:40:41;94507.63;;;7.14;100.00
6680;BME280;3376;42.664;23.346;2023-03-04T01:43:11;94491.69;;;7.11;100.00
6680;BME280;3376;42.664;23.346;2023-03-04T01:45:41;94503.25;;;7.07;100.00
6680;BME280;3376;42.664;23.346;2023-03-04T01:48:08;94501.59;;;6.98;100.00
6680;BME280;3376;42.664;23.346;2023-03-04T01:50:37;94494.41;;;7.09;100.00
6680;BME280;3376;42.664;23.346;2023-03-04T01:53:03;94482.63;;;7.07;100.00
6680;BME280;3376;42.664;23.346;2023-03-04T01:55:31;94360.16;;;6.21;100.00
6680;BME280;3376;42.664;23.346;2023-03-04T01:57:59;94272.75;;;5.62;100.00
6680;BME280;3376;42.664;23.346;2023-03-04T02:00:28;94495.16;;;7.02;100.00
6680;BME280;3376;42.664;23.346;2023-03-04T02:02:58;94500.31;;;7.02;100.00
6680;BME280;3376;42.664;23.346;2023-03-04T02:05:27;94261.97;;;5.58;100.00
6680;BME280;3376;42.664;23.346;2023-03-04T02:07:56;94489.78;;;6.87;100.00
6680;BME280;3376;42.664;23.346;2023-03-04T02:10:24;94112.66;;;4.51;100.00
6680;BME280;3376;42.664;23.346;2023-03-04T02:12:51;94483.00;;;6.78;100.00
6680;BME280;3376;42.664;23.346;2023-03-04T02:15:20;94493.56;;;6.75;100.00
6680;BME280;3376;42.664;23.346;2023-03-04T02:17:48;94496.59;;;6.63;100.00
6680;BME280;3376;42.664;23.346;2023-03-04T02:20:22;94470.34;;;6.59;100.00
6680;BME280;3376;42.664;23.346;2023-03-04T02:22:56;94492.09;;;6.65;100.00
6680;BME280;3376;42.664;23.346;2023-03-04T02:25:31;94476.91;;;6.54;100.00
6680;BME280;3376;42.664;23.346;2023-03-04T02:28:00;94490.63;;;6.62;100.00
6680;BME280;3376;42.664;23.346;2023-03-04T02:30:27;94489.19;;;6.60;100.00
6680;BME280;3376;42.664;23.346;2023-03-04T02:32:54;94489.53;;;6.65;100.00
6680;BME280;3376;42.664;23.346;2023-03-04T02:35:21;94318.97;;;5.62;100.00
6680;BME280;3376;42.664;23.346;2023-03-04T02:37:48;94485.56;;;6.78;100.00
6680;BME280;3376;42.664;23.346;2023-03-04T02:40:20;94450.06;;;6.56;100.00
6680;BME280;3376;42.664;23.346;2023-03-04T02:42:48;94472.84;;;6.77;100.00
6680;BME280;3376;42.664;23.346;2023-03-04T02:45:37;94442.13;;;6.50;100.00
6680;BME280;3376;42.664;23.346;2023-03-04T02:48:05;94472.81;;;6.69;100.00
6680;BME280;3376;42.664;23.346;2023-03-04T02:50:35;94465.69;;;6.63;100.00
6680;BME280;3376;42.664;23.346;2023-03-04T02:53:02;94451.44;;;6.43;100.00
6680;BME280;3376;42.664;23.346;2023-03-04T02:55:29;94471.59;;;6.55;100.00
6680;BME280;3376;42.664;23.346;2023-03-04T02:57:56;94469.94;;;6.46;100.00
6680;BME280;3376;42.664;23.346;2023-03-04T03:00:23;94462.63;;;6.34;100.00
6680;BME280;3376;42.664;23.346;2023-03-04T03:02:51;94468.94;;;6.39;100.00
6680;BME280;3376;42.664;23.346;2023-03-04T03:05:18;94465.56;;;6.39;100.00
6680;BME280;3376;42.664;23.346;2023-03-04T03:07:45;94446.94;;;6.19;100.00
6680;BME280;3376;42.664;23.346;2023-03-04T03:10:12;94472.28;;;6.32;100.00
6680;BME280;3376;42.664;23.346;2023-03-04T03:12:38;94474.19;;;6.30;100.00
6680;BME280;3376;42.664;23.346;2023-03-04T03:15:06;94476.41;;;6.25;100.00
6680;BME280;3376;42.664;23.346;2023-03-04T03:17:33;94475.38;;;6.18;100.00
6680;BME280;3376;42.664;23.346;2023-03-04T03:20:02;94479.19;;;6.14;100.00
6680;BME280;3376;42.664;23.346;2023-03-04T03:22:29;94450.09;;;5.87;100.00
6680;BME280;3376;42.664;23.346;2023-03-04T03:24:56;94444.34;;;5.76;100.00
6680;BME280;3376;42.664;23.346;2023-03-04T03:27:23;94440.31;;;5.73;100.00
6680;BME280;3376;42.664;23.346;2023-03-04T03:29:50;94476.38;;;5.99;100.00
6680;BME280;3376;42.664;23.346;2023-03-04T03:32:16;94466.03;;;5.91;100.00
6680;BME280;3376;42.664;23.346;2023-03-04T03:34:43;94470.34;;;5.90;100.00
6680;BME280;3376;42.664;23.346;2023-03-04T03:37:12;94463.97;;;5.94;100.00
6680;BME280;3376;42.664;23.346;2023-03-04T03:39:38;94465.53;;;5.87;100.00
6680;BME280;3376;42.664;23.346;2023-03-04T03:42:05;94442.06;;;5.73;100.00
6680;BME280;3376;42.664;23.346;2023-03-04T03:44:32;94455.72;;;5.73;100.00
6680;BME280;3376;42.664;23.346;2023-03-04T03:46:59;94464.25;;;5.74;100.00
6680;BME280;3376;42.664;23.346;2023-03-04T03:49:26;94388.00;;;5.22;100.00
6680;BME280;3376;42.664;23.346;2023-03-04T03:51:53;94465.44;;;5.62;100.00
6680;BME280;3376;42.664;23.346;2023-03-04T03:54:21;94458.38;;;5.46;100.00
6680;BME280;3376;42.664;23.346;2023-03-04T03:56:48;94458.69;;;5.43;100.00
6680;BME280;3376;42.664;23.346;2023-03-04T03:59:15;94445.66;;;5.27;100.00
6680;BME280;3376;42.664;23.346;2023-03-04T04:01:41;94445.31;;;5.22;100.00
6680;BME280;3376;42.664;23.346;2023-03-04T04:04:08;94449.84;;;5.28;100.00
6680;BME280;3376;42.664;23.346;2023-03-04T04:06:35;94454.78;;;5.39;100.00
6680;BME280;3376;42.664;23.346;2023-03-04T04:09:02;94447.13;;;5.30;100.00
6680;BME280;3376;42.664;23.346;2023-03-04T04:11:30;94446.38;;;5.20;100.00
6680;BME280;3376;42.664;23.346;2023-03-04T04:13:56;94448.88;;;5.12;100.00
6680;BME280;3376;42.664;23.346;2023-03-04T04:16:23;94441.78;;;5.23;100.00
6680;BME280;3376;42.664;23.346;2023-03-04T04:18:50;94452.78;;;5.16;100.00
6680;BME280;3376;42.664;23.346;2023-03-04T04:21:17;94447.38;;;5.09;100.00
6680;BME280;3376;42.664;23.346;2023-03-04T04:23:43;94453.72;;;5.15;100.00
6680;BME280;3376;42.664;23.346;2023-03-04T04:26:10;94430.09;;;4.94;100.00
6680;BME280;3376;42.664;23.346;2023-03-04T04:28:38;94452.16;;;5.04;100.00
6680;BME280;3376;42.664;23.346;2023-03-04T04:31:06;94431.97;;;4.92;100.00
6680;BME280;3376;42.664;23.346;2023-03-04T04:33:33;94453.03;;;4.95;100.00
6680;BME280;3376;42.664;23.346;2023-03-04T04:36:00;94415.50;;;4.67;100.00
6680;BME280;3376;42.664;23.346;2023-03-04T04:38:28;94453.59;;;4.89;100.00
6680;BME280;3376;42.664;23.346;2023-03-04T04:40:55;94452.22;;;4.95;100.00
6680;BME280;3376;42.664;23.346;2023-03-04T04:43:23;94379.00;;;4.46;100.00
6680;BME280;3376;42.664;23.346;2023-03-04T04:45:51;94449.22;;;4.99;100.00
6680;BME280;3376;42.664;23.346;2023-03-04T04:48:18;94433.28;;;4.96;100.00
6680;BME280;3376;42.664;23.346;2023-03-04T04:50:45;94448.44;;;4.99;100.00
6680;BME280;3376;42.664;23.346;2023-03-04T04:53:12;94423.41;;;4.73;100.00
6680;BME280;3376;42.664;23.346;2023-03-04T04:55:38;94449.56;;;4.87;100.00
6680;BME280;3376;42.664;23.346;2023-03-04T04:58:05;94454.72;;;4.77;100.00
6680;BME280;3376;42.664;23.346;2023-03-04T05:00:32;94459.09;;;4.67;100.00
6680;BME280;3376;42.664;23.346;2023-03-04T05:03:00;94428.00;;;4.43;100.00
6680;BME280;3376;42.664;23.346;2023-03-04T05:05:27;94386.69;;;4.19;100.00
6680;BME280;3376;42.664;23.346;2023-03-04T05:07:54;94466.50;;;4.70;100.00
6680;BME280;3376;42.664;23.346;2023-03-04T05:10:21;94459.78;;;4.69;100.00
6680;BME280;3376;42.664;23.346;2023-03-04T05:12:47;94467.84;;;4.74;100.00
6680;BME280;3376;42.664;23.346;2023-03-04T05:15:15;94437.97;;;4.46;100.00
6680;BME280;3376;42.664;23.346;2023-03-04T05:17:42;94477.00;;;4.76;100.00
6680;BME280;3376;42.664;23.346;2023-03-04T05:20:11;94474.13;;;4.89;100.00
6680;BME280;3376;42.664;23.346;2023-03-04T05:22:38;94467.66;;;4.85;100.00
6680;BME280;3376;42.664;23.346;2023-03-04T05:25:05;94479.63;;;4.94;100.00
6680;BME280;3376;42.664;23.346;2023-03-04T05:27:32;94481.91;;;4.97;100.00
6680;BME280;3376;42.664;23.346;2023-03-04T05:29:59;94487.03;;;4.97;100.00
6680;BME280;3376;42.664;23.346;2023-03-04T05:32:26;94492.00;;;5.08;100.00
6680;BME280;3376;42.664;23.346;2023-03-04T05:34:53;94494.28;;;5.11;100.00
6680;BME280;3376;42.664;23.346;2023-03-04T05:37:21;94457.59;;;5.01;100.00
6680;BME280;3376;42.664;23.346;2023-03-04T05:39:48;94486.09;;;5.25;100.00
6680;BME280;3376;42.664;23.346;2023-03-04T05:42:15;94496.06;;;5.28;100.00
6680;BME280;3376;42.664;23.346;2023-03-04T05:44:42;94485.75;;;5.38;100.00
6680;BME280;3376;42.664;23.346;2023-03-04T05:47:08;94493.97;;;5.41;100.00
6680;BME280;3376;42.664;23.346;2023-03-04T05:49:35;94381.00;;;4.79;100.00
6680;BME280;3376;42.664;23.346;2023-03-04T05:52:02;94443.66;;;5.21;100.00
6680;BME280;3376;42.664;23.346;2023-03-04T05:54:30;94496.69;;;5.57;100.00
6680;BME280;3376;42.664;23.346;2023-03-04T05:56:57;94485.09;;;5.53;100.00
6680;BME280;3376;42.664;23.346;2023-03-04T05:59:23;94497.66;;;5.74;100.00
6680;BME280;3376;42.664;23.346;2023-03-04T06:01:50;94491.75;;;5.64;100.00
6680;BME280;3376;42.664;23.346;2023-03-04T06:04:17;94508.47;;;5.77;100.00
6680;BME280;3376;42.664;23.346;2023-03-04T06:06:44;94467.34;;;5.60;100.00
6680;BME280;3376;42.664;23.346;2023-03-04T06:09:11;94506.72;;;5.95;100.00
6680;BME280;3376;42.664;23.346;2023-03-04T06:11:40;94503.84;;;5.98;100.00
6680;BME280;3376;42.664;23.346;2023-03-04T06:14:06;94488.13;;;6.02;100.00
6680;BME280;3376;42.664;23.346;2023-03-04T06:16:33;94471.44;;;6.06;100.00
6680;BME280;3376;42.664;23.346;2023-03-04T06:19:00;94508.88;;;6.26;100.00
6680;BME280;3376;42.664;23.346;2023-03-04T06:21:27;94509.09;;;6.32;100.00
6680;BME280;3376;42.664;23.346;2023-03-04T06:23:53;94511.44;;;6.26;100.00
6680;BME280;3376;42.664;23.346;2023-03-04T06:26:20;94496.09;;;6.16;100.00
6680;BME280;3376;42.664;23.346;2023-03-04T06:28:48;94508.09;;;6.25;100.00
6680;BME280;3376;42.664;23.346;2023-03-04T06:31:16;94511.94;;;6.29;100.00
6680;BME280;3376;42.664;23.346;2023-03-04T06:33:42;94506.56;;;6.40;100.00
6680;BME280;3376;42.664;23.346;2023-03-04T06:36:10;94514.75;;;6.61;100.00
6680;BME280;3376;42.664;23.346;2023-03-04T06:38:37;94522.63;;;6.60;100.00
6680;BME280;3376;42.664;23.346;2023-03-04T06:41:08;94514.09;;;6.59;100.00
6680;BME280;3376;42.664;23.346;2023-03-04T06:43:35;94478.81;;;6.52;100.00
6680;BME280;3376;42.664;23.346;2023-03-04T06:46:04;94534.00;;;6.83;100.00
6680;BME280;3376;42.664;23.346;2023-03-04T06:48:31;94521.19;;;6.91;100.00
6680;BME280;3376;42.664;23.346;2023-03-04T06:50:57;94502.81;;;6.86;100.00
6680;BME280;3376;42.664;23.346;2023-03-04T06:53:24;94513.50;;;6.99;100.00
6680;BME280;3376;42.664;23.346;2023-03-04T06:55:51;94511.59;;;7.01;100.00
6680;BME280;3376;42.664;23.346;2023-03-04T06:58:18;94527.78;;;7.27;100.00
6680;BME280;3376;42.664;23.346;2023-03-04T07:00:44;94515.19;;;7.16;100.00
6680;BME280;3376;42.664;23.346;2023-03-04T07:03:13;94519.41;;;7.25;100.00
6680;BME280;3376;42.664;23.346;2023-03-04T07:05:39;94527.84;;;7.35;100.00
6680;BME280;3376;42.664;23.346;2023-03-04T07:08:07;94534.09;;;7.41;100.00
6680;BME280;3376;42.664;23.346;2023-03-04T07:10:34;94528.16;;;7.40;100.00
6680;BME280;3376;42.664;23.346;2023-03-04T07:13:02;94494.25;;;7.11;100.00
6680;BME280;3376;42.664;23.346;2023-03-04T07:15:29;94529.09;;;7.31;100.00
6680;BME280;3376;42.664;23.346;2023-03-04T07:17:56;94529.13;;;7.39;100.00
6680;BME280;3376;42.664;23.346;2023-03-04T07:20:24;94545.06;;;7.35;100.00
6680;BME280;3376;42.664;23.346;2023-03-04T07:22:50;94532.81;;;7.37;100.00
6680;BME280;3376;42.664;23.346;2023-03-04T07:25:17;94538.75;;;7.37;100.00
6680;BME280;3376;42.664;23.346;2023-03-04T07:27:44;94540.72;;;7.35;100.00
6680;BME280;3376;42.664;23.346;2023-03-04T07:30:11;94521.94;;;7.17;100.00
6680;BME280;3376;42.664;23.346;2023-03-04T07:32:38;94536.84;;;7.39;100.00
6680;BME280;3376;42.664;23.346;2023-03-04T07:35:06;94538.94;;;7.36;100.00
6680;BME280;3376;42.664;23.346;2023-03-04T07:37:34;94532.66;;;7.38;100.00
6680;BME280;3376;42.664;23.346;2023-03-04T07:40:01;94545.22;;;7.41;100.00
6680;BME280;3376;42.664;23.346;2023-03-04T07:42:28;94545.72;;;7.37;100.00
6680;BME280;3376;42.664;23.346;2023-03-04T07:44:55;94543.31;;;7.51;100.00
6680;BME280;3376;42.664;23.346;2023-03-04T07:47:22;94530.75;;;7.40;100.00
6680;BME280;3376;42.664;23.346;2023-03-04T07:49:48;94536.66;;;7.33;100.00
6680;BME280;3376;42.664;23.346;2023-03-04T07:52:15;94535.25;;;7.46;100.00
6680;BME280;3376;42.664;23.346;2023-03-04T07:54:43;94519.78;;;7.38;100.00
6680;BME280;3376;42.664;23.346;2023-03-04T07:57:10;94531.91;;;7.54;100.00
6680;BME280;3376;42.664;23.346;2023-03-04T07:59:36;94534.66;;;7.60;100.00
6680;BME280;3376;42.664;23.346;2023-03-04T08:02:03;94533.25;;;7.66;100.00
6680;BME280;3376;42.664;23.346;2023-03-04T08:04:30;94532.44;;;7.73;100.00
6680;BME280;3376;42.664;23.346;2023-03-04T08:06:57;94534.72;;;7.92;100.00
6680;BME280;3376;42.664;23.346;2023-03-04T08:09:24;94528.94;;;8.06;100.00
6680;BME280;3376;42.664;23.346;2023-03-04T08:11:52;94531.19;;;8.09;100.00
6680;BME280;3376;42.664;23.346;2023-03-04T08:14:18;94533.31;;;8.14;100.00
6680;BME280;3376;42.664;23.346;2023-03-04T08:16:45;94537.66;;;8.21;100.00
6680;BME280;3376;42.664;23.346;2023-03-04T08:19:12;94531.91;;;8.27;100.00
6680;BME280;3376;42.664;23.346;2023-03-04T08:21:39;94523.97;;;8.37;100.00
6680;BME280;3376;42.664;23.346;2023-03-04T08:24:05;94532.53;;;8.38;100.00
6680;BME280;3376;42.664;23.346;2023-03-04T08:26:35;94527.88;;;8.41;100.00
6680;BME280;3376;42.664;23.346;2023-03-04T08:29:08;94470.25;;;8.16;100.00
6680;BME280;3376;42.664;23.346;2023-03-04T08:31:35;94527.06;;;8.57;100.00
6680;BME280;3376;42.664;23.346;2023-03-04T08:34:02;94499.63;;;8.31;100.00
6680;BME280;3376;42.664;23.346;2023-03-04T08:36:29;94397.75;;;7.71;100.00
6680;BME280;3376;42.664;23.346;2023-03-04T08:38:56;94487.38;;;8.33;100.00
6680;BME280;3376;42.664;23.346;2023-03-04T08:41:23;94504.78;;;8.48;100.00
6680;BME280;3376;42.664;23.346;2023-03-04T08:43:51;94536.03;;;8.77;100.00
6680;BME280;3376;42.664;23.346;2023-03-04T08:46:20;94529.59;;;8.73;100.00
6680;BME280;3376;42.664;23.346;2023-03-04T08:48:47;94525.06;;;8.91;100.00
6680;BME280;3376;42.664;23.346;2023-03-04T08:51:14;94522.78;;;8.96;100.00
6680;BME280;3376;42.664;23.346;2023-03-04T08:53:41;94520.59;;;9.15;100.00
6680;BME280;3376;42.664;23.346;2023-03-04T08:56:08;94520.91;;;9.28;100.00
6680;BME280;3376;42.664;23.346;2023-03-04T08:58:35;94520.50;;;9.47;100.00
6680;BME280;3376;42.664;23.346;2023-03-04T09:01:03;94528.66;;;9.59;100.00
6680;BME280;3376;42.664;23.346;2023-03-04T09:03:32;94525.28;;;9.59;100.00
6680;BME280;3376;42.664;23.346;2023-03-04T09:06:01;94520.19;;;9.73;100.00
6680;BME280;3376;42.664;23.346;2023-03-04T09:08:28;94520.09;;;9.89;100.00
6680;BME280;3376;42.664;23.346;2023-03-04T09:10:54;94518.72;;;9.79;100.00
6680;BME280;3376;42.664;23.346;2023-03-04T09:13:21;94502.13;;;9.65;100.00
6680;BME280;3376;42.664;23.346;2023-03-04T09:15:50;94323.56;;;8.52;99.32
6680;BME280;3376;42.664;23.346;2023-03-04T09:18:18;94514.34;;;9.79;99.79
6680;BME280;3376;42.664;23.346;2023-03-04T09:20:47;94498.91;;;9.63;100.00
6680;BME280;3376;42.664;23.346;2023-03-04T09:23:14;94412.63;;;9.03;100.00
6680;BME280;3376;42.664;23.346;2023-03-04T09:25:42;94498.88;;;9.71;100.00
6680;BME280;3376;42.664;23.346;2023-03-04T09:28:09;94505.56;;;9.58;99.95
6680;BME280;3376;42.664;23.346;2023-03-04T09:30:37;94487.66;;;9.56;100.00
6680;BME280;3376;42.664;23.346;2023-03-04T09:33:04;94495.56;;;9.85;100.00
6680;BME280;3376;42.664;23.346;2023-03-04T09:35:31;94472.00;;;9.72;99.20
6680;BME280;3376;42.664;23.346;2023-03-04T09:37:59;94462.59;;;9.79;100.00
6680;BME280;3376;42.664;23.346;2023-03-04T09:40:29;94472.19;;;9.93;98.34
6680;BME280;3376;42.664;23.346;2023-03-04T09:43:00;94462.88;;;9.84;95.47
6680;BME280;3376;42.664;23.346;2023-03-04T09:45:34;94496.69;;;10.05;96.34
6680;BME280;3376;42.664;23.346;2023-03-04T09:48:02;94495.09;;;10.04;96.00
6680;BME280;3376;42.664;23.346;2023-03-04T09:50:33;94482.47;;;10.01;95.89
6680;BME280;3376;42.664;23.346;2023-03-04T09:53:17;94483.44;;;10.08;94.04
6680;BME280;3376;42.664;23.346;2023-03-04T09:55:48;94467.09;;;9.85;94.05
6680;BME280;3376;42.664;23.346;2023-03-04T09:58:25;94481.44;;;9.88;94.04
6680;BME280;3376;42.664;23.346;2023-03-04T10:00:55;94455.34;;;9.52;95.05
6680;BME280;3376;42.664;23.346;2023-03-04T10:03:24;94486.66;;;9.57;95.87
6680;BME280;3376;42.664;23.346;2023-03-04T10:05:55;94469.31;;;9.35;97.01
6680;BME280;3376;42.664;23.346;2023-03-04T10:08:35;94475.19;;;9.51;96.91
6680;BME280;3376;42.664;23.346;2023-03-04T10:11:10;94476.00;;;9.52;95.88
6680;BME280;3376;42.664;23.346;2023-03-04T10:13:43;94447.19;;;9.63;95.89
6680;BME280;3376;42.664;23.346;2023-03-04T10:16:18;94468.81;;;9.93;97.00
6680;BME280;3376;42.664;23.346;2023-03-04T10:18:48;94440.75;;;10.04;95.36
6680;BME280;3376;42.664;23.346;2023-03-04T10:21:21;94437.81;;;10.07;95.58
6680;BME280;3376;42.664;23.346;2023-03-04T10:23:51;94455.59;;;10.10;94.98
6680;BME280;3376;42.664;23.346;2023-03-04T10:26:20;94406.03;;;9.76;93.69
6680;BME280;3376;42.664;23.346;2023-03-04T10:28:49;94455.34;;;10.20;94.12
6680;BME280;3376;42.664;23.346;2023-03-04T10:31:20;94459.03;;;10.25;93.45
6680;BME280;3376;42.664;23.346;2023-03-04T10:33:48;94449.22;;;10.35;93.09
6680;BME280;3376;42.664;23.346;2023-03-04T10:36:31;94439.88;;;10.49;93.35
6680;BME280;3376;42.664;23.346;2023-03-04T10:39:05;94438.84;;;10.73;91.13
6680;BME280;3376;42.664;23.346;2023-03-04T10:41:33;94433.47;;;11.03;88.94
6680;BME280;3376;42.664;23.346;2023-03-04T10:44:02;94433.00;;;11.29;88.94
6680;BME280;3376;42.664;23.346;2023-03-04T10:46:29;94435.19;;;11.46;88.53
6680;BME280;3376;42.664;23.346;2023-03-04T10:48:57;94430.28;;;11.37;89.23
6680;BME280;3376;42.664;23.346;2023-03-04T10:51:26;94417.00;;;11.25;88.38
6680;BME280;3376;42.664;23.346;2023-03-04T10:53:56;94377.34;;;11.10;89.68
6680;BME280;3376;42.664;23.346;2023-03-04T10:56:34;94418.31;;;11.36;89.69
6680;BME280;3376;42.664;23.346;2023-03-04T10:59:28;94416.34;;;11.38;90.31
6680;BME280;3376;42.664;23.346;2023-03-04T11:01:56;94414.97;;;11.42;89.79
6680;BME280;3376;42.664;23.346;2023-03-04T11:04:24;94399.16;;;11.37;90.96
6680;BME280;3376;42.664;23.346;2023-03-04T11:06:51;94392.22;;;11.23;88.65
6680;BME280;3376;42.664;23.346;2023-03-04T11:09:21;94385.06;;;11.25;89.87
6680;BME280;3376;42.664;23.346;2023-03-04T11:11:51;94375.44;;;11.19;88.80
6680;BME280;3376;42.664;23.346;2023-03-04T11:14:23;94391.19;;;11.17;88.11
6680;BME280;3376;42.664;23.346;2023-03-04T11:16:55;94366.00;;;10.97;88.16
6680;BME280;3376;42.664;23.346;2023-03-04T11:19:26;94374.22;;;10.86;89.25
6680;BME280;3376;42.664;23.346;2023-03-04T11:21:56;94383.69;;;10.79;89.47
6680;BME280;3376;42.664;23.346;2023-03-04T11:24:26;94375.41;;;10.68;89.06
6680;BME280;3376;42.664;23.346;2023-03-04T11:26:59;94372.13;;;10.75;90.66
6680;BME280;3376;42.664;23.346;2023-03-04T11:29:30;94359.94;;;10.75;92.43
6680;BME280;3376;42.664;23.346;2023-03-04T11:32:06;94347.06;;;10.82;90.56
6680;BME280;3376;42.664;23.346;2023-03-04T11:34:38;94360.19;;;10.95;89.41
6680;BME280;3376;42.664;23.346;2023-03-04T11:37:11;94360.25;;;11.16;88.78
6680;BME280;3376;42.664;23.346;2023-03-04T11:39:44;94303.38;;;10.93;88.10
6680;BME280;3376;42.664;23.346;2023-03-04T11:42:22;94353.75;;;11.26;89.27
6680;BME280;3376;42.664;23.346;2023-03-04T11:44:50;94280.06;;;10.79;87.14
6680;BME280;3376;42.664;23.346;2023-03-04T11:47:37;94338.50;;;10.66;89.53
6680;BME280;3376;42.664;23.346;2023-03-04T11:50:15;94340.94;;;10.53;91.63
6680;BME280;3376;42.664;23.346;2023-03-04T11:53:03;94335.06;;;10.45;91.25
6680;BME280;3376;42.664;23.346;2023-03-04T11:55:40;94310.41;;;10.34;91.08
6680;BME280;3376;42.664;23.346;2023-03-04T11:58:22;94338.06;;;10.63;90.32
6680;BME280;3376;42.664;23.346;2023-03-04T12:00:57;94308.69;;;10.27;90.68
6680;BME280;3376;42.664;23.346;2023-03-04T12:03:56;94326.50;;;10.30;91.26
6680;BME280;3376;42.664;23.346;2023-03-04T12:06:31;94286.00;;;9.85;92.00
6680;BME280;3376;42.664;23.346;2023-03-04T12:09:10;94276.59;;;9.70;92.82
6680;BME280;3376;42.664;23.346;2023-03-04T12:11:45;94326.53;;;10.07;92.17
6680;BME280;3376;42.664;23.346;2023-03-04T12:14:24;94316.34;;;10.06;92.44
6680;BME280;3376;42.664;23.346;2023-03-04T12:17:11;94316.28;;;10.14;93.44
6680;BME280;3376;42.664;23.346;2023-03-04T12:19:54;94316.75;;;10.17;92.56
6680;BME280;3376;42.664;23.346;2023-03-04T12:22:30;94315.69;;;10.26;91.66
6680;BME280;3376;42.664;23.346;2023-03-04T12:25:26;94303.16;;;10.15;92.36
6680;BME280;3376;42.664;23.346;2023-03-04T12:28:06;94308.06;;;9.96;93.84
6680;BME280;3376;42.664;23.346;2023-03-04T12:30:45;94304.47;;;9.97;94.45
6680;BME280;3376;42.664;23.346;2023-03-04T12:33:23;94298.84;;;9.93;94.36
6680;BME280;3376;42.664;23.346;2023-03-04T12:36:00;94295.19;;;10.02;94.84
6680;BME280;3376;42.664;23.346;2023-03-04T12:38:43;94292.94;;;9.99;95.51
6680;BME280;3376;42.664;23.346;2023-03-04T12:41:21;94301.56;;;10.14;96.49
6680;BME280;3376;42.664;23.346;2023-03-04T12:43:55;94279.69;;;10.17;95.51
6680;BME280;3376;42.664;23.346;2023-03-04T12:46:38;94301.28;;;10.24;95.61
6680;BME280;3376;42.664;23.346;2023-03-04T12:49:37;94274.34;;;10.18;94.73
6680;BME280;3376;42.664;23.346;2023-03-04T12:52:11;94288.25;;;10.32;93.66
6680;BME280;3376;42.664;23.346;2023-03-04T12:54:42;94240.50;;;10.05;94.10
6680;BME280;3376;42.664;23.346;2023-03-04T12:57:13;94081.56;;;9.06;94.76
6680;BME280;3376;42.664;23.346;2023-03-04T12:59:45;94270.31;;;10.30;94.70
6680;BME280;3376;42.664;23.346;2023-03-04T13:02:37;94267.53;;;10.32;94.13
6680;BME280;3376;42.664;23.346;2023-03-04T13:05:22;94229.88;;;10.00;93.95
6680;BME280;3376;42.664;23.346;2023-03-04T13:07:55;94271.41;;;10.21;94.64
6680;BME280;3376;42.664;23.346;2023-03-04T13:10:27;94248.28;;;10.20;94.24
6680;BME280;3376;42.664;23.346;2023-03-04T13:12:54;94236.88;;;10.14;94.29
6680;BME280;3376;42.664;23.346;2023-03-04T13:15:33;94256.56;;;10.44;93.88
6680;BME280;3376;42.664;23.346;2023-03-04T13:18:14;94251.09;;;10.54;92.90
6680;BME280;3376;42.664;23.346;2023-03-04T13:21:05;94244.03;;;11.47;100.00
6680;BME280;3376;42.664;23.346;2023-03-04T13:23:33;94245.38;;;11.92;100.00